If you wish to contribute or participate in the discussions about articles you are invited to join SKYbrary as a registered user

 Actions

Celle Air Base

From SKYbrary Wiki

ETHC
Airport
ICAO: ETHC
Summary
Name Celle Air Base
Region Europe
Territory Germany DE.gif
Location Celle, Lower Saxony
Serving
Coordinates 52° 35' 23.48" N, 10° 1' 31.61" E
Runways
Designator Length Width Surface ROPS
8/26 1831 m6,007.218 ft
45 m147.638 ft
ASP /


METAR
Observation ETHC 120420Z 18003KT 4000 BR FEW004 BKN013 BKN022 03/03 Q1002 GRN
Station Celle
Date/Time 12 December 2019 04:20:00
Wind direction 180°
Wind speed 03 kts
Lowest cloud amount few clouds
Temperature 3°C
Dew point 3°C
Humidity 100%
QNH 1002 hPa
Weather condition n/a

Celle Air Base

ICAO: ETHC IATA: ZCN

Description

Celle Air Base is a military airbase of the German Army. The airfield is situated south-west of the city of Celle, Lower Saxony, Germany.

Maps

Terrain

Loading map...

Airport Layout

Loading map...


Accidents & Serious Incidents at or in vicinity of ETHC

None on SKYbrary